• Join FlightAware (Why Join?)
  • Login
  • US Flag GB Flag 
02:17 EDT


 

Airport Tracker/Info


-or-


 

Live Flight TrackerFlight Track Log ✈ CTL337 ✈ 01-May-2013 ✈ KBKL - KHAO

Flight Track Log - Related Links

Times and Time Zones

All times are in EDT time to prevent confusion due to time zone crossing. See the CTL337 flight status page for this flight to view local times or setup timezone preferences in your user account.

Time Position Orientation Groundspeed Altitude Reporting Facility
EDT Latitude Longitude Course Direction KTS MPH feet Rate Location/Type
22:41 41.5336 -81.6761 341° North 120 138 1,300  Level Cleveland Center
22:42 41.5833 -81.6992 341° North 136 157 2,900 1,080 Climbing Cleveland Center
22:43 41.6103 -81.7244 325° Northwest 140 161 4,000 960 Climbing Cleveland Center
22:44 41.6222 -81.7747 288° West 143 165 4,900 840 Climbing Cleveland Center
22:45 41.6239 -81.8275 272° West 146 168 5,700 780 Climbing Cleveland Center
22:46 41.6006 -81.8661 231° Southwest 148 170 6,400 840 Climbing Cleveland Center
22:47 41.5811 -81.9183 244° Southwest 134 154 7,400 780 Climbing Cleveland Center
22:48 41.5558 -81.9483 222° Southwest 139 160 8,000 300 Climbing Cleveland Center
22:49 41.5261 -81.9867 224° Southwest 176 203 8,000  Level Cleveland Center
22:50 41.4900 -82.0300 222° Southwest 185 213 8,000  Level Cleveland Center
22:51 41.4561 -82.0708 222° Southwest 184 212 8,000  Level Cleveland Center
22:52 41.4181 -82.1172 222° Southwest 186 214 8,000  Level Cleveland Center
22:54 41.3723 -82.1730 223° Southwest  Level Estimated
23:01 41.1610 -82.4296 222° Southwest  Level Estimated
23:01 41.0739 -82.5333 222° Southwest 176 203 8,100  Level Cleveland Center
23:02 41.1308 -82.4661 222° Southwest  Level Estimated
23:02 41.0419 -82.5736 224° Southwest 182 209 8,000  Level Cleveland Center
23:03 41.1006 -82.5026 222° Southwest  Level Estimated
23:03 41.0036 -82.6192 222° Southwest 182 209 8,000  Level Cleveland Center
23:04 41.0703 -82.5390 222° Southwest  Level Estimated
23:04 40.9653 -82.6619 220° Southwest 182 209 8,100  Level Cleveland Center
23:05 41.0400 -82.5754 222° Southwest  Level Estimated
23:05 40.9272 -82.7019 218° Southwest 187 215 8,100  Level Cleveland Center
23:06 40.8889 -82.7475 222° Southwest 187 215 8,100  Level Cleveland Center
23:07 40.8483 -82.7900 218° Southwest 187 215 8,100 -60 Level Cleveland Center
23:08 40.8142 -82.8383 227° Southwest 187 215 8,000  Descending Cleveland Center
23:09 40.7736 -82.8808 218° Southwest 187 215 8,100 -60 Climbing Cleveland Center
23:10 40.7372 -82.9289 225° Southwest 187 215 7,900 -120 Descending Cleveland Center
23:11 40.7008 -82.9742 223° Southwest 187 215 7,900 60 Level Cleveland Center
23:12 40.6622 -83.0192 221° Southwest 187 215 8,100 120 Climbing Cleveland Center
23:13 40.6197 -83.0642 219° Southwest 187 215 8,200  Climbing Cleveland Center
23:14 40.5997 -83.0844 218° Southwest 184 212 8,100  Descending Indianapolis Center
23:15 40.5614 -83.1297 222° Southwest 184 212 8,200  Climbing Indianapolis Center
23:16 40.5244 -83.1717 221° Southwest 184 212 8,100 -60 Descending Indianapolis Center
23:17 40.4850 -83.2150 220° Southwest 183 211 8,100  Level Indianapolis Center
23:18 40.4428 -83.2547 216° Southwest 184 212 8,100  Level Indianapolis Center
23:19 40.3978 -83.3078 222° Southwest 185 213 8,100  Level Indianapolis Center
23:20 40.3564 -83.3453 215° Southwest 180 207 8,100  Level Indianapolis Center
23:21 40.3128 -83.3814 212° Southwest 183 211 8,100  Level Indianapolis Center
23:22 40.2667 -83.3725 172° South 167 192 8,100  Level Indianapolis Center
23:23 40.2303 -83.3408 146° Southeast 157 181 8,100  Level Indianapolis Center
23:24 40.2100 -83.2925 119° Southeast 153 176 8,100  Level Indianapolis Center
23:25 40.2153 -83.2394 83° East 148 170 8,100 -120 Level Indianapolis Center
23:26 40.2447 -83.2350 North 183 211 7,900  Descending Indianapolis Center
23:27 40.2125 -83.2889 232° Southwest 188 216 8,200 60 Climbing Indianapolis Center
23:28 40.1772 -83.3372 226° Southwest 184 212 8,100 -60 Descending Indianapolis Center
23:29 40.1411 -83.3883 227° Southwest 188 216 8,100  Level Indianapolis Center
23:30 40.1061 -83.4381 227° Southwest 186 214 8,100  Level Indianapolis Center
23:31 40.0711 -83.4883 228° Southwest 187 215 8,100  Level Indianapolis Center
23:32 40.0375 -83.5386 229° Southwest 185 213 8,100  Level Indianapolis Center
23:33 40.0036 -83.5889 229° Southwest 184 212 8,100  Level Indianapolis Center
23:34 39.9689 -83.6378 227° Southwest 184 212 8,200  Climbing Indianapolis Center
23:35 39.9294 -83.6972 229° Southwest 185 213 8,100  Descending Indianapolis Center
23:36 39.8919 -83.7567 231° Southwest 185 213 8,200  Climbing Indianapolis Center
23:37 39.8631 -83.7994 229° Southwest 184 212 8,200 -60 Level Indianapolis Center
23:38 39.8289 -83.8486 228° Southwest 182 209 8,100 -60 Descending Indianapolis Center
23:39 39.7961 -83.9008 231° Southwest 185 213 8,100  Level Indianapolis Center
23:40 39.7619 -83.9519 229° Southwest 181 208 8,200 -240 Climbing Indianapolis Center
23:41 39.7244 -84.0042 227° Southwest 190 219 7,700 -600 Descending Indianapolis Center
23:42 39.6889 -84.0592 230° Southwest 205 236 7,100 -660 Descending Indianapolis Center
23:43 39.6533 -84.1114 229° Southwest 197 227 6,400 -660 Descending Indianapolis Center
23:44 39.6175 -84.1664 230° Southwest 195 224 5,800 -540 Descending Indianapolis Center
23:45 39.5822 -84.2192 229° Southwest 197 227 5,300 -600 Descending Indianapolis Center
23:46 39.5472 -84.2725 230° Southwest 195 224 4,600 -720 Descending Indianapolis Center
23:47 39.5111 -84.3244 228° Southwest 193 222 3,900 -780 Descending Indianapolis Center
23:48 39.4756 -84.3761 228° Southwest 192 221 3,100 -840 Descending Indianapolis Center
23:49 39.4403 -84.4242 226° Southwest 187 215 2,200 -900 Descending Indianapolis Center
23:51 39.3917 -84.4583 218° Southwest  Level FlightAware Approximate
23:58 39.3500 -84.5167 229° Southwest  Level FlightAware Approximate
23:59 39.3638 -84.5219 229° Southwest  Level Estimated
00:00 39.3638 -84.5219 229° Southwest  Level Estimated
00:01 39.3638 -84.5219 229° Southwest  Level Estimated
00:02 39.3638 -84.5219 229° Southwest  Level Estimated